createdAt,value
2018-09-10T00:01:25.076Z,12.64
2018-09-10T00:04:28.203Z,12.40
2018-09-10T00:07:31.424Z,12.70
2018-09-10T00:10:34.728Z,12.60
2018-09-10T00:13:37.926Z,12.42
2018-09-10T00:16:41.107Z,12.45
2018-09-10T00:19:44.272Z,12.38
2018-09-10T00:22:47.688Z,12.35
2018-09-10T00:25:50.843Z,12.67
2018-09-10T00:28:54.002Z,12.94
2018-09-10T00:31:57.118Z,12.94
2018-09-10T00:35:00.232Z,12.98
2018-09-10T00:38:03.488Z,12.92
2018-09-10T00:41:06.633Z,12.65
2018-09-10T00:44:10.054Z,12.72
2018-09-10T00:47:13.358Z,12.75
2018-09-10T00:50:16.510Z,12.79
2018-09-10T00:53:19.715Z,12.65
2018-09-10T00:56:22.898Z,12.15
2018-09-10T00:59:26.260Z,12.45
2018-09-10T01:02:29.416Z,12.64
2018-09-10T01:05:32.631Z,12.37
2018-09-10T01:08:35.793Z,12.49
2018-09-10T01:11:39.413Z,12.73
2018-09-10T01:14:42.760Z,12.75
2018-09-10T01:17:46.027Z,12.53
2018-09-10T01:20:49.265Z,12.30
2018-09-10T01:23:52.560Z,10.90
2018-09-10T01:26:55.794Z,11.48
2018-09-10T01:29:59.104Z,11.96
2018-09-10T01:33:02.392Z,12.34
2018-09-10T01:36:05.699Z,12.03
2018-09-10T01:39:09.438Z,12.33
2018-09-10T01:42:12.618Z,12.52
2018-09-10T01:45:16.027Z,11.89
2018-09-10T01:48:19.506Z,11.75
2018-09-10T01:51:22.692Z,11.80
2018-09-10T01:54:25.869Z,11.95
2018-09-10T01:57:29.090Z,12.37
2018-09-10T02:00:32.229Z,12.79
2018-09-10T02:03:35.449Z,12.72
2018-09-10T02:06:38.734Z,12.84
2018-09-10T02:09:42.100Z,13.05
2018-09-10T02:12:45.363Z,13.03
2018-09-10T02:15:48.590Z,12.66
2018-09-10T02:18:51.852Z,11.95
2018-09-10T02:21:56.040Z,12.50
2018-09-10T02:24:59.202Z,12.66
2018-09-10T02:28:02.390Z,12.59
2018-09-10T02:31:05.804Z,12.62
2018-09-10T02:34:09.204Z,12.43
2018-09-10T02:37:12.443Z,12.93
2018-09-10T02:40:15.655Z,12.97
2018-09-10T02:43:18.856Z,13.04
2018-09-10T02:46:21.986Z,13.22
2018-09-10T02:49:25.261Z,13.01
2018-09-10T02:52:28.451Z,13.01
2018-09-10T02:55:31.736Z,12.99
2018-09-10T02:58:35.039Z,13.06
2018-09-10T03:01:39.221Z,12.80
2018-09-10T03:04:44.975Z,13.28
2018-09-10T03:07:48.198Z,12.97
2018-09-10T03:10:51.429Z,12.33
2018-09-10T03:13:54.639Z,10.73
2018-09-10T03:16:57.859Z,11.04
2018-09-10T03:20:01.033Z,11.70
2018-09-10T03:23:04.227Z,11.55
2018-09-10T03:26:07.464Z,11.80
2018-09-10T03:29:10.744Z,12.04
2018-09-10T03:32:13.856Z,11.92
2018-09-10T03:35:17.078Z,12.14
2018-09-10T03:38:20.242Z,12.32
2018-09-10T03:41:23.435Z,12.27
2018-09-10T03:44:26.715Z,11.57
2018-09-10T03:47:29.999Z,12.08
2018-09-10T03:50:33.359Z,12.37
2018-09-10T03:53:36.848Z,12.14
2018-09-10T03:56:40.208Z,11.78
2018-09-10T03:59:43.572Z,11.94
2018-09-10T04:02:46.816Z,11.91
2018-09-10T04:05:50.138Z,11.89
2018-09-10T04:08:53.455Z,11.27
2018-09-10T04:12:59.790Z,11.34
2018-09-10T04:16:04.115Z,11.61
2018-09-10T04:19:07.587Z,11.53
2018-09-10T04:22:42.131Z,11.85
2018-09-10T04:25:45.388Z,11.86
2018-09-10T04:28:48.736Z,11.46
2018-09-10T04:31:51.927Z,11.46
2018-09-10T04:34:57.104Z,11.38
2018-09-10T04:38:03.417Z,11.63
2018-09-10T04:41:06.644Z,11.94
2018-09-10T04:44:10.850Z,11.93
2018-09-10T04:47:14.004Z,11.84
2018-09-10T04:50:18.662Z,12.06
2018-09-10T04:53:25.822Z,11.39
2018-09-10T04:56:29.173Z,10.04
2018-09-10T04:59:32.373Z,10.57
2018-09-10T05:02:35.675Z,10.96
2018-09-10T05:05:38.900Z,11.66
2018-09-10T05:08:41.991Z,11.70
2018-09-10T05:11:45.379Z,11.75
2018-09-10T05:14:48.814Z,11.88
2018-09-10T05:17:52.058Z,12.14
2018-09-10T05:20:55.320Z,12.21
2018-09-10T05:23:58.582Z,12.52
2018-09-10T05:27:01.819Z,12.91
2018-09-10T05:30:06.101Z,13.00
2018-09-10T05:33:09.368Z,13.27
2018-09-10T05:36:14.719Z,13.03
2018-09-10T05:39:17.963Z,13.10
2018-09-10T05:42:21.170Z,13.89
2018-09-10T05:45:24.532Z,14.13
2018-09-10T05:48:27.781Z,14.46
2018-09-10T05:54:41.771Z,15.08
2018-09-10T05:57:45.042Z,15.58
2018-09-10T06:00:48.246Z,15.40
2018-09-10T06:03:53.555Z,15.25
2018-09-10T06:11:04.792Z,15.09
2018-09-10T06:14:08.007Z,14.32
2018-09-10T06:17:41.987Z,14.09
2018-09-10T06:20:46.210Z,13.98
2018-09-10T06:23:51.432Z,13.64
2018-09-10T06:26:54.782Z,14.45
2018-09-10T06:29:58.033Z,13.29
2018-09-10T06:33:03.287Z,13.14
2018-09-10T06:36:07.554Z,13.30
2018-09-10T06:39:12.321Z,14.65
2018-09-10T06:42:15.733Z,13.51
2018-09-10T06:45:18.945Z,13.01
2018-09-10T06:48:22.305Z,13.30
2018-09-10T06:51:25.610Z,13.90
2018-09-10T06:54:29.867Z,13.67
2018-09-10T06:57:34.114Z,13.85
2018-09-10T07:00:39.302Z,13.21
2018-09-10T07:03:42.429Z,14.26
2018-09-10T07:06:46.051Z,15.07
2018-09-10T07:09:50.334Z,15.98
2018-09-10T07:12:54.564Z,15.88
2018-09-10T07:15:57.842Z,16.98
2018-09-10T07:19:01.062Z,17.85
2018-09-10T07:22:04.478Z,17.00
2018-09-10T07:25:08.741Z,18.02
2018-09-10T07:28:12.211Z,18.53
2018-09-10T07:31:15.470Z,18.98
2018-09-10T07:34:18.756Z,19.93
2018-09-10T07:37:22.021Z,19.53
2018-09-10T07:40:25.256Z,19.43
2018-09-10T07:43:28.488Z,19.76
2018-09-10T07:46:31.712Z,20.08
2018-09-10T07:49:35.039Z,20.91
2018-09-10T07:52:38.308Z,20.16
2018-09-10T07:55:41.521Z,21.21
2018-09-10T07:58:44.800Z,20.87
2018-09-10T08:01:47.997Z,21.20
2018-09-10T08:04:51.190Z,21.54
2018-09-10T08:07:54.384Z,21.67
2018-09-10T08:10:57.498Z,21.96
2018-09-10T08:14:00.698Z,21.25
2018-09-10T08:17:03.992Z,21.66
2018-09-10T08:20:07.476Z,20.95
2018-09-10T08:23:11.707Z,19.76
2018-09-10T08:26:15.067Z,20.12
2018-09-10T08:29:18.389Z,20.64
2018-09-10T08:32:21.669Z,20.80
2018-09-10T08:35:24.951Z,21.18
2018-09-10T08:38:28.120Z,20.48
2018-09-10T08:41:31.337Z,20.53
2018-09-10T08:44:34.646Z,20.29
2018-09-10T08:47:38.101Z,20.29
2018-09-10T08:50:41.356Z,21.28
2018-09-10T08:53:44.783Z,20.97
2018-09-10T08:56:48.093Z,21.09
2018-09-10T08:59:51.211Z,21.41
2018-09-10T09:02:54.575Z,20.92
2018-09-10T09:05:57.742Z,21.81
2018-09-10T09:09:01.142Z,21.73
2018-09-10T09:12:04.387Z,22.17
2018-09-10T09:15:07.706Z,21.82
2018-09-10T09:18:11.223Z,21.88
2018-09-10T09:21:14.663Z,21.73
2018-09-10T09:24:17.956Z,22.18
2018-09-10T09:27:21.351Z,23.28
2018-09-10T09:30:24.669Z,24.17
2018-09-10T09:33:27.980Z,24.55
2018-09-10T09:36:36.811Z,23.76
2018-09-10T09:39:45.816Z,24.62
2018-09-10T09:42:54.770Z,25.38
2018-09-10T09:46:03.522Z,25.57
2018-09-10T09:49:06.783Z,24.65
2018-09-10T09:52:11.255Z,26.17
2018-09-10T09:55:14.531Z,24.40
2018-09-10T09:58:18.850Z,25.03
2018-09-10T10:01:27.794Z,24.35
2018-09-10T10:04:31.314Z,25.74
2018-09-10T10:07:34.570Z,25.36
2018-09-10T10:10:38.110Z,25.90
2018-09-10T10:13:41.392Z,25.76
2018-09-10T10:16:44.648Z,24.88
2018-09-10T10:19:48.379Z,24.83
2018-09-10T10:22:51.700Z,25.21
2018-09-10T10:25:54.946Z,25.48
2018-09-10T10:28:58.160Z,24.85
2018-09-10T10:32:01.446Z,24.94
2018-09-10T10:35:05.023Z,25.65
2018-09-10T10:38:08.195Z,25.40
2018-09-10T10:41:11.425Z,25.90
2018-09-10T10:44:45.467Z,25.15
2018-09-10T10:47:48.608Z,25.06
2018-09-10T10:50:51.833Z,24.87
2018-09-10T10:53:55.071Z,25.31
2018-09-10T10:56:58.278Z,25.06
2018-09-10T11:00:01.901Z,26.37
2018-09-10T11:03:05.249Z,26.28
2018-09-10T11:06:08.598Z,26.39
2018-09-10T11:09:11.871Z,26.75
2018-09-10T11:12:15.230Z,26.85
2018-09-10T11:15:18.431Z,26.84
2018-09-10T11:18:21.720Z,26.69
2018-09-10T11:21:25.275Z,27.17
2018-09-10T11:24:28.543Z,26.66
2018-09-10T11:27:31.871Z,27.36
2018-09-10T11:30:35.126Z,26.89
2018-09-10T11:33:38.331Z,26.87
2018-09-10T11:36:41.344Z,26.65
2018-09-10T11:39:44.557Z,26.60
2018-09-10T11:42:47.693Z,27.58
2018-09-10T11:45:50.841Z,27.61
2018-09-10T11:48:54.144Z,27.03
2018-09-10T11:51:57.282Z,27.08
2018-09-10T11:55:00.457Z,27.04
2018-09-10T11:58:03.592Z,26.75
2018-09-10T12:01:06.709Z,26.66
2018-09-10T12:04:09.960Z,26.88
2018-09-10T12:07:13.778Z,27.02
2018-09-10T12:10:16.992Z,26.56
2018-09-10T12:13:20.514Z,26.82
2018-09-10T12:16:23.818Z,27.16
2018-09-10T12:19:27.022Z,27.36
2018-09-10T12:22:30.326Z,27.23
2018-09-10T12:25:33.527Z,26.79
2018-09-10T12:28:36.684Z,27.08
2018-09-10T12:31:39.810Z,27.53
2018-09-10T12:35:45.984Z,27.68
2018-09-10T12:38:49.204Z,27.39
2018-09-10T12:41:52.309Z,27.79
2018-09-10T12:44:55.500Z,27.63
2018-09-10T12:47:58.685Z,26.72
2018-09-10T12:51:01.926Z,26.78
2018-09-10T12:54:05.057Z,27.22
2018-09-10T12:57:08.372Z,27.39
2018-09-10T13:00:11.637Z,27.36
2018-09-10T13:03:14.901Z,27.21
2018-09-10T13:06:18.052Z,27.21
2018-09-10T13:09:21.215Z,27.52
2018-09-10T13:12:24.479Z,27.39
2018-09-10T13:15:27.754Z,26.99
2018-09-10T13:18:30.991Z,27.15
2018-09-10T13:21:34.463Z,27.17
2018-09-10T13:24:37.587Z,27.26
2018-09-10T13:27:40.724Z,27.41
2018-09-10T13:30:43.804Z,27.17
2018-09-10T13:33:47.000Z,27.12
2018-09-10T13:36:50.131Z,27.16
2018-09-10T13:39:53.441Z,27.17
2018-09-10T13:42:56.617Z,26.82
2018-09-10T13:45:59.700Z,26.72
2018-09-10T13:49:02.965Z,26.70
2018-09-10T13:52:06.160Z,26.64
2018-09-10T13:55:09.220Z,26.83
2018-09-10T13:58:43.461Z,26.77
2018-09-10T14:01:46.725Z,26.58
2018-09-10T14:04:49.944Z,26.94
2018-09-10T14:07:53.118Z,27.08
2018-09-10T14:10:56.261Z,27.16
2018-09-10T14:13:59.636Z,27.28
2018-09-10T14:17:02.791Z,28.21
2018-09-10T14:20:06.000Z,28.34
2018-09-10T14:23:10.058Z,27.90
2018-09-10T14:26:13.302Z,27.48
2018-09-10T14:29:16.791Z,27.19
2018-09-10T14:32:20.346Z,26.99
2018-09-10T14:35:23.661Z,27.25
2018-09-10T14:38:26.789Z,27.32
2018-09-10T14:41:29.927Z,27.62
2018-09-10T14:44:33.181Z,27.10
2018-09-10T14:47:36.235Z,26.91
2018-09-10T14:50:39.309Z,26.57
2018-09-10T14:53:42.598Z,26.90
2018-09-10T14:56:45.796Z,26.46
2018-09-10T14:59:48.901Z,26.59
2018-09-10T15:02:52.226Z,26.21
2018-09-10T15:05:55.622Z,26.65
2018-09-10T15:08:58.857Z,25.90
2018-09-10T15:12:01.987Z,26.11
2018-09-10T15:15:05.162Z,26.26
2018-09-10T15:18:08.338Z,25.96
2018-09-10T15:21:11.543Z,25.60
2018-09-10T15:24:14.713Z,25.66
2018-09-10T15:27:17.944Z,25.45
2018-09-10T15:30:21.082Z,25.25
2018-09-10T15:33:24.341Z,25.32
2018-09-10T15:36:27.512Z,25.19
2018-09-10T15:39:30.721Z,25.15
2018-09-10T15:42:33.905Z,25.25
2018-09-10T15:45:39.134Z,25.25
2018-09-10T15:48:42.226Z,25.06
2018-09-10T15:51:45.491Z,25.02
2018-09-10T15:54:48.703Z,24.73
2018-09-10T15:57:51.905Z,24.58
2018-09-10T16:00:55.096Z,24.34
2018-09-10T16:03:58.303Z,24.53
2018-09-10T16:07:01.457Z,24.27
2018-09-10T16:10:04.901Z,24.61
2018-09-10T16:13:08.129Z,24.66
2018-09-10T16:16:12.216Z,24.34
2018-09-10T16:19:15.392Z,24.08
2018-09-10T16:22:19.022Z,24.22
2018-09-10T16:25:22.394Z,24.10
2018-09-10T16:28:26.508Z,24.17
2018-09-10T16:31:29.990Z,24.06
2018-09-10T16:34:33.251Z,23.97
2018-09-10T16:37:36.809Z,23.86
2018-09-10T16:40:40.006Z,23.61
2018-09-10T16:43:43.174Z,23.56
2018-09-10T16:46:46.437Z,23.40
2018-09-10T16:49:49.941Z,23.37
2018-09-10T16:52:53.222Z,23.28
2018-09-10T16:55:57.338Z,23.19
2018-09-10T16:59:01.057Z,23.23
2018-09-10T17:02:04.473Z,23.16
2018-09-10T17:05:07.709Z,23.13
2018-09-10T17:08:10.852Z,23.08
2018-09-10T17:11:14.127Z,23.09
2018-09-10T17:14:17.534Z,23.02
2018-09-10T17:17:20.817Z,23.05
2018-09-10T17:20:24.021Z,23.06
2018-09-10T17:23:27.285Z,23.04
2018-09-10T17:26:30.703Z,22.92
2018-09-10T17:29:33.757Z,22.83
2018-09-10T17:32:38.317Z,22.80
2018-09-10T17:35:41.450Z,22.75
2018-09-10T17:38:46.780Z,22.70
2018-09-10T17:41:52.174Z,22.53
2018-09-10T17:44:55.366Z,22.55
2018-09-10T17:47:58.686Z,22.33
2018-09-10T17:51:03.271Z,22.40
2018-09-10T17:54:06.698Z,22.55
2018-09-10T17:57:09.765Z,22.35
2018-09-10T18:00:15.026Z,22.01
2018-09-10T18:03:18.249Z,22.17
2018-09-10T18:06:22.066Z,21.97
2018-09-10T18:09:25.133Z,21.80
2018-09-10T18:12:30.837Z,21.72
2018-09-10T18:15:34.033Z,21.78
2018-09-10T18:18:37.213Z,21.70
2018-09-10T18:21:40.373Z,21.57
2018-09-10T18:24:46.716Z,21.42
2018-09-10T18:27:50.304Z,21.36
2018-09-10T18:30:54.449Z,21.60
2018-09-10T18:33:57.582Z,21.80
2018-09-10T18:37:00.707Z,21.70
2018-09-10T18:40:04.094Z,21.99
2018-09-10T18:43:07.470Z,22.01
2018-09-10T18:49:46.023Z,21.93
2018-09-10T18:52:49.274Z,21.61
2018-09-10T18:55:53.823Z,21.72
2018-09-10T18:58:59.937Z,21.92
2018-09-10T19:02:03.185Z,21.44
2018-09-10T19:05:06.551Z,21.30
2018-09-10T19:08:09.842Z,20.63
2018-09-10T19:11:13.093Z,20.33
2018-09-10T19:14:16.368Z,19.89
2018-09-10T19:17:19.767Z,19.29
2018-09-10T19:20:22.915Z,19.34
2018-09-10T19:23:26.089Z,19.04
2018-09-10T19:26:29.351Z,18.89
2018-09-10T19:29:32.598Z,19.11
2018-09-10T19:32:35.733Z,19.21
2018-09-10T19:35:39.019Z,18.93
2018-09-10T19:38:42.310Z,18.82
2018-09-10T19:41:45.614Z,18.77
2018-09-10T19:44:48.931Z,18.80
2018-09-10T19:47:52.039Z,18.45
2018-09-10T19:50:55.347Z,18.21
2018-09-10T19:53:58.598Z,18.49
2018-09-10T19:57:01.902Z,18.47
2018-09-10T20:00:05.291Z,18.51
2018-09-10T20:03:08.499Z,18.38
2018-09-10T20:06:11.800Z,18.34
2018-09-10T20:09:15.053Z,18.23
2018-09-10T20:12:18.289Z,18.59
2018-09-10T20:15:21.627Z,18.71
2018-09-10T20:18:24.754Z,18.74
2018-09-10T20:21:27.940Z,18.43
2018-09-10T20:24:31.304Z,18.35
2018-09-10T20:27:34.448Z,18.06
2018-09-10T20:30:37.715Z,18.27
2018-09-10T20:34:12.726Z,17.93
2018-09-10T20:37:15.889Z,17.93
2018-09-10T20:40:19.090Z,17.50
2018-09-10T20:43:22.295Z,17.46
2018-09-10T20:46:25.483Z,17.62
2018-09-10T20:49:29.084Z,17.85
2018-09-10T20:52:32.385Z,17.93
2018-09-10T20:55:35.673Z,17.88
2018-09-10T20:58:38.799Z,17.85
2018-09-10T21:01:42.050Z,17.66
2018-09-10T21:04:45.259Z,17.77
2018-09-10T21:07:48.360Z,17.34
2018-09-10T21:10:51.545Z,17.50
2018-09-10T21:13:54.945Z,17.34
2018-09-10T21:16:58.174Z,17.51
2018-09-10T21:20:01.545Z,17.23
2018-09-10T21:23:04.957Z,17.31
2018-09-10T21:26:08.219Z,16.83
2018-09-10T21:29:11.388Z,17.13
2018-09-10T21:32:14.549Z,17.30
2018-09-10T21:35:17.764Z,17.23
2018-09-10T21:38:20.991Z,17.25
2018-09-10T21:41:24.220Z,17.53
2018-09-10T21:44:27.365Z,17.12
2018-09-10T21:47:31.614Z,17.21
2018-09-10T21:50:34.833Z,17.05
2018-09-10T21:53:39.200Z,17.15
2018-09-10T21:56:42.343Z,16.79
2018-09-10T21:59:45.482Z,16.66
2018-09-10T22:02:48.553Z,16.76
2018-09-10T22:05:51.982Z,16.66
2018-09-10T22:08:55.207Z,16.66
2018-09-10T22:12:01.322Z,16.93
2018-09-10T22:15:04.620Z,16.72
2018-09-10T22:18:07.766Z,16.64
2018-09-10T22:21:10.859Z,16.67
2018-09-10T22:24:14.949Z,16.58
2018-09-10T22:27:18.108Z,16.75
2018-09-10T22:30:21.298Z,16.68
2018-09-10T22:33:24.404Z,16.75
2018-09-10T22:36:28.693Z,16.74
2018-09-10T22:39:31.840Z,16.70
2018-09-10T22:42:41.547Z,16.53
2018-09-10T22:45:44.672Z,16.60
2018-09-10T22:48:47.902Z,16.15
2018-09-10T22:51:52.749Z,16.61
2018-09-10T22:54:55.955Z,16.60
2018-09-10T22:58:02.399Z,16.45
2018-09-10T23:01:05.542Z,16.64
2018-09-10T23:04:09.849Z,16.46
2018-09-10T23:07:14.077Z,16.50
2018-09-10T23:10:17.266Z,16.88
2018-09-10T23:13:20.393Z,16.94
2018-09-10T23:16:23.560Z,16.42
2018-09-10T23:19:26.824Z,16.37
2018-09-10T23:22:29.918Z,16.08
2018-09-10T23:25:33.973Z,16.26
2018-09-10T23:28:39.276Z,16.21
2018-09-10T23:31:42.545Z,16.20
2018-09-10T23:34:45.718Z,15.91
2018-09-10T23:37:48.897Z,16.23
2018-09-10T23:40:52.024Z,16.09
2018-09-10T23:43:55.182Z,16.05
2018-09-10T23:46:58.366Z,16.09
2018-09-10T23:50:01.611Z,15.76
2018-09-10T23:53:08.207Z,15.54
2018-09-10T23:56:13.470Z,16.03
2018-09-10T23:59:18.881Z,15.93
